sensor_id;sensor_type;location;lat;lon;timestamp;P1;durP1;ratioP1;P2;durP2;ratioP2
84997;SDS011;75314;48.120;11.534;2024-03-07T00:00:20;11.10;;;9.90;;
84997;SDS011;75314;48.120;11.534;2024-03-07T00:02:46;9.07;;;8.17;;
84997;SDS011;75314;48.120;11.534;2024-03-07T00:05:20;9.37;;;8.47;;
84997;SDS011;75314;48.120;11.534;2024-03-07T00:07:45;10.23;;;9.13;;
84997;SDS011;75314;48.120;11.534;2024-03-07T00:10:11;9.90;;;8.67;;
84997;SDS011;75314;48.120;11.534;2024-03-07T00:12:39;10.83;;;8.67;;
84997;SDS011;75314;48.120;11.534;2024-03-07T00:15:05;10.73;;;9.63;;
84997;SDS011;75314;48.120;11.534;2024-03-07T00:17:33;12.67;;;11.27;;
84997;SDS011;75314;48.120;11.534;2024-03-07T00:19:59;11.23;;;10.03;;
84997;SDS011;75314;48.120;11.534;2024-03-07T00:22:24;11.10;;;10.00;;
84997;SDS011;75314;48.120;11.534;2024-03-07T00:24:49;12.23;;;9.77;;
84997;SDS011;75314;48.120;11.534;2024-03-07T00:27:14;12.57;;;10.53;;
84997;SDS011;75314;48.120;11.534;2024-03-07T00:29:40;11.43;;;10.13;;
84997;SDS011;75314;48.120;11.534;2024-03-07T00:32:05;12.00;;;10.43;;
84997;SDS011;75314;48.120;11.534;2024-03-07T00:34:31;12.73;;;10.80;;
84997;SDS011;75314;48.120;11.534;2024-03-07T00:36:56;14.23;;;11.70;;
84997;SDS011;75314;48.120;11.534;2024-03-07T00:39:21;14.00;;;11.60;;
84997;SDS011;75314;48.120;11.534;2024-03-07T00:41:46;13.37;;;11.17;;
84997;SDS011;75314;48.120;11.534;2024-03-07T00:44:12;13.10;;;11.57;;
84997;SDS011;75314;48.120;11.534;2024-03-07T00:46:37;16.30;;;11.83;;
84997;SDS011;75314;48.120;11.534;2024-03-07T00:49:02;13.83;;;11.30;;
84997;SDS011;75314;48.120;11.534;2024-03-07T00:51:28;13.93;;;11.43;;
84997;SDS011;75314;48.120;11.534;2024-03-07T00:53:54;17.27;;;11.97;;
84997;SDS011;75314;48.120;11.534;2024-03-07T00:56:19;14.60;;;11.83;;
84997;SDS011;75314;48.120;11.534;2024-03-07T00:58:45;14.40;;;11.33;;
84997;SDS011;75314;48.120;11.534;2024-03-07T01:01:10;13.27;;;11.43;;
84997;SDS011;75314;48.120;11.534;2024-03-07T01:03:35;14.83;;;12.23;;
84997;SDS011;75314;48.120;11.534;2024-03-07T01:06:00;16.10;;;12.70;;
84997;SDS011;75314;48.120;11.534;2024-03-07T01:08:25;15.53;;;12.83;;
84997;SDS011;75314;48.120;11.534;2024-03-07T01:10:51;16.03;;;13.10;;
84997;SDS011;75314;48.120;11.534;2024-03-07T01:13:16;17.27;;;13.53;;
84997;SDS011;75314;48.120;11.534;2024-03-07T01:15:41;17.03;;;14.23;;
84997;SDS011;75314;48.120;11.534;2024-03-07T01:18:06;17.00;;;12.93;;
84997;SDS011;75314;48.120;11.534;2024-03-07T01:20:31;15.83;;;12.80;;
84997;SDS011;75314;48.120;11.534;2024-03-07T01:22:57;16.07;;;13.00;;
84997;SDS011;75314;48.120;11.534;2024-03-07T01:25:22;16.13;;;13.23;;
84997;SDS011;75314;48.120;11.534;2024-03-07T01:27:47;17.37;;;13.27;;
84997;SDS011;75314;48.120;11.534;2024-03-07T01:30:12;16.83;;;14.03;;
84997;SDS011;75314;48.120;11.534;2024-03-07T01:32:38;18.73;;;14.37;;
84997;SDS011;75314;48.120;11.534;2024-03-07T01:35:03;19.87;;;15.30;;
84997;SDS011;75314;48.120;11.534;2024-03-07T01:37:29;17.20;;;13.80;;
84997;SDS011;75314;48.120;11.534;2024-03-07T01:39:54;17.83;;;14.03;;
84997;SDS011;75314;48.120;11.534;2024-03-07T01:42:19;20.07;;;14.57;;
84997;SDS011;75314;48.120;11.534;2024-03-07T01:44:44;19.07;;;15.23;;
84997;SDS011;75314;48.120;11.534;2024-03-07T01:47:10;20.30;;;14.97;;
84997;SDS011;75314;48.120;11.534;2024-03-07T01:49:36;22.03;;;15.67;;
84997;SDS011;75314;48.120;11.534;2024-03-07T01:52:01;19.83;;;14.63;;
84997;SDS011;75314;48.120;11.534;2024-03-07T01:54:27;23.00;;;16.03;;
84997;SDS011;75314;48.120;11.534;2024-03-07T01:56:53;19.13;;;14.47;;
84997;SDS011;75314;48.120;11.534;2024-03-07T01:59:19;22.17;;;16.27;;
84997;SDS011;75314;48.120;11.534;2024-03-07T02:01:44;21.23;;;14.93;;
84997;SDS011;75314;48.120;11.534;2024-03-07T02:04:09;19.83;;;15.47;;
84997;SDS011;75314;48.120;11.534;2024-03-07T02:06:35;21.90;;;15.03;;
84997;SDS011;75314;48.120;11.534;2024-03-07T02:09:00;21.97;;;16.10;;
84997;SDS011;75314;48.120;11.534;2024-03-07T02:11:25;23.00;;;17.20;;
84997;SDS011;75314;48.120;11.534;2024-03-07T02:13:50;20.70;;;15.83;;
84997;SDS011;75314;48.120;11.534;2024-03-07T02:16:15;19.63;;;14.93;;
84997;SDS011;75314;48.120;11.534;2024-03-07T02:18:41;20.37;;;16.63;;
84997;SDS011;75314;48.120;11.534;2024-03-07T02:21:07;21.10;;;16.27;;
84997;SDS011;75314;48.120;11.534;2024-03-07T02:23:32;23.00;;;16.87;;
84997;SDS011;75314;48.120;11.534;2024-03-07T02:25:58;22.80;;;17.20;;
84997;SDS011;75314;48.120;11.534;2024-03-07T02:28:23;21.37;;;15.97;;
84997;SDS011;75314;48.120;11.534;2024-03-07T02:30:48;22.87;;;17.30;;
84997;SDS011;75314;48.120;11.534;2024-03-07T02:33:13;23.30;;;17.70;;
84997;SDS011;75314;48.120;11.534;2024-03-07T02:35:38;22.50;;;17.23;;
84997;SDS011;75314;48.120;11.534;2024-03-07T02:38:04;23.00;;;16.73;;
84997;SDS011;75314;48.120;11.534;2024-03-07T02:40:29;22.97;;;16.97;;
84997;SDS011;75314;48.120;11.534;2024-03-07T02:42:55;23.60;;;17.20;;
84997;SDS011;75314;48.120;11.534;2024-03-07T02:45:20;20.70;;;17.00;;
84997;SDS011;75314;48.120;11.534;2024-03-07T02:47:45;21.17;;;16.93;;
84997;SDS011;75314;48.120;11.534;2024-03-07T02:50:10;19.40;;;16.07;;
84997;SDS011;75314;48.120;11.534;2024-03-07T02:52:36;22.27;;;17.87;;
84997;SDS011;75314;48.120;11.534;2024-03-07T02:55:01;24.27;;;18.27;;
84997;SDS011;75314;48.120;11.534;2024-03-07T02:57:26;23.73;;;18.10;;
84997;SDS011;75314;48.120;11.534;2024-03-07T02:59:51;25.27;;;19.23;;
84997;SDS011;75314;48.120;11.534;2024-03-07T03:02:17;25.43;;;19.70;;
84997;SDS011;75314;48.120;11.534;2024-03-07T03:04:42;24.57;;;19.07;;
84997;SDS011;75314;48.120;11.534;2024-03-07T03:07:07;28.10;;;18.73;;
84997;SDS011;75314;48.120;11.534;2024-03-07T03:09:32;26.00;;;19.37;;
84997;SDS011;75314;48.120;11.534;2024-03-07T03:11:57;25.17;;;19.33;;
84997;SDS011;75314;48.120;11.534;2024-03-07T03:14:22;27.53;;;21.23;;
84997;SDS011;75314;48.120;11.534;2024-03-07T03:16:48;32.80;;;21.50;;
84997;SDS011;75314;48.120;11.534;2024-03-07T03:19:13;29.10;;;22.67;;
84997;SDS011;75314;48.120;11.534;2024-03-07T03:21:38;29.53;;;22.77;;
84997;SDS011;75314;48.120;11.534;2024-03-07T03:24:04;31.20;;;23.40;;
84997;SDS011;75314;48.120;11.534;2024-03-07T03:26:29;28.40;;;21.67;;
84997;SDS011;75314;48.120;11.534;2024-03-07T03:28:54;31.03;;;22.43;;
84997;SDS011;75314;48.120;11.534;2024-03-07T03:31:19;31.60;;;23.63;;
84997;SDS011;75314;48.120;11.534;2024-03-07T03:33:45;33.17;;;24.00;;
84997;SDS011;75314;48.120;11.534;2024-03-07T03:36:10;32.77;;;24.67;;
84997;SDS011;75314;48.120;11.534;2024-03-07T03:38:35;34.03;;;24.27;;
84997;SDS011;75314;48.120;11.534;2024-03-07T03:41:00;31.40;;;24.17;;
84997;SDS011;75314;48.120;11.534;2024-03-07T03:43:26;30.60;;;23.60;;
84997;SDS011;75314;48.120;11.534;2024-03-07T03:45:51;32.53;;;22.93;;
84997;SDS011;75314;48.120;11.534;2024-03-07T03:48:16;35.90;;;23.77;;
84997;SDS011;75314;48.120;11.534;2024-03-07T03:50:41;31.23;;;23.53;;
84997;SDS011;75314;48.120;11.534;2024-03-07T03:53:06;30.07;;;22.73;;
84997;SDS011;75314;48.120;11.534;2024-03-07T03:55:32;28.07;;;21.53;;
84997;SDS011;75314;48.120;11.534;2024-03-07T03:57:57;34.53;;;24.17;;
84997;SDS011;75314;48.120;11.534;2024-03-07T04:00:22;30.47;;;23.87;;
84997;SDS011;75314;48.120;11.534;2024-03-07T04:02:47;28.13;;;21.43;;
84997;SDS011;75314;48.120;11.534;2024-03-07T04:05:13;29.17;;;22.50;;
84997;SDS011;75314;48.120;11.534;2024-03-07T04:07:39;31.70;;;24.60;;
84997;SDS011;75314;48.120;11.534;2024-03-07T04:10:04;34.83;;;24.30;;
84997;SDS011;75314;48.120;11.534;2024-03-07T04:12:30;33.23;;;24.80;;
84997;SDS011;75314;48.120;11.534;2024-03-07T04:14:56;30.07;;;23.20;;
84997;SDS011;75314;48.120;11.534;2024-03-07T04:17:21;31.70;;;24.00;;
84997;SDS011;75314;48.120;11.534;2024-03-07T04:19:46;37.00;;;25.40;;
84997;SDS011;75314;48.120;11.534;2024-03-07T04:22:12;35.47;;;23.47;;
84997;SDS011;75314;48.120;11.534;2024-03-07T04:24:37;32.50;;;25.20;;
84997;SDS011;75314;48.120;11.534;2024-03-07T04:27:03;34.83;;;25.13;;
84997;SDS011;75314;48.120;11.534;2024-03-07T04:29:28;31.23;;;23.80;;
84997;SDS011;75314;48.120;11.534;2024-03-07T04:31:54;32.93;;;25.33;;
84997;SDS011;75314;48.120;11.534;2024-03-07T04:34:19;36.17;;;25.87;;
84997;SDS011;75314;48.120;11.534;2024-03-07T04:36:44;36.33;;;28.57;;
84997;SDS011;75314;48.120;11.534;2024-03-07T04:39:09;36.77;;;26.93;;
84997;SDS011;75314;48.120;11.534;2024-03-07T04:41:35;36.60;;;25.87;;
84997;SDS011;75314;48.120;11.534;2024-03-07T04:44:00;39.53;;;28.90;;
84997;SDS011;75314;48.120;11.534;2024-03-07T04:46:25;33.37;;;26.63;;
84997;SDS011;75314;48.120;11.534;2024-03-07T04:48:51;38.30;;;28.50;;
84997;SDS011;75314;48.120;11.534;2024-03-07T04:51:16;39.83;;;29.00;;
84997;SDS011;75314;48.120;11.534;2024-03-07T04:53:41;35.70;;;26.17;;
84997;SDS011;75314;48.120;11.534;2024-03-07T04:56:06;40.87;;;28.47;;
84997;SDS011;75314;48.120;11.534;2024-03-07T04:58:31;38.43;;;27.63;;
84997;SDS011;75314;48.120;11.534;2024-03-07T05:00:57;38.53;;;28.53;;
84997;SDS011;75314;48.120;11.534;2024-03-07T05:03:22;39.77;;;29.37;;
84997;SDS011;75314;48.120;11.534;2024-03-07T05:05:47;40.63;;;28.70;;
84997;SDS011;75314;48.120;11.534;2024-03-07T05:08:12;37.60;;;28.50;;
84997;SDS011;75314;48.120;11.534;2024-03-07T05:10:37;37.67;;;27.30;;
84997;SDS011;75314;48.120;11.534;2024-03-07T05:13:02;35.37;;;26.27;;
84997;SDS011;75314;48.120;11.534;2024-03-07T05:15:28;36.47;;;27.30;;
84997;SDS011;75314;48.120;11.534;2024-03-07T05:17:53;41.37;;;29.43;;
84997;SDS011;75314;48.120;11.534;2024-03-07T05:20:18;39.83;;;30.03;;
84997;SDS011;75314;48.120;11.534;2024-03-07T05:22:43;38.30;;;27.83;;
84997;SDS011;75314;48.120;11.534;2024-03-07T05:25:09;39.20;;;28.00;;
84997;SDS011;75314;48.120;11.534;2024-03-07T05:27:34;38.67;;;28.57;;
84997;SDS011;75314;48.120;11.534;2024-03-07T05:29:59;38.93;;;28.90;;
84997;SDS011;75314;48.120;11.534;2024-03-07T05:32:25;39.53;;;28.20;;
84997;SDS011;75314;48.120;11.534;2024-03-07T05:34:51;42.33;;;29.20;;
84997;SDS011;75314;48.120;11.534;2024-03-07T05:37:17;38.83;;;27.97;;
84997;SDS011;75314;48.120;11.534;2024-03-07T05:39:42;43.20;;;30.07;;
84997;SDS011;75314;48.120;11.534;2024-03-07T05:42:07;40.23;;;29.40;;
84997;SDS011;75314;48.120;11.534;2024-03-07T05:44:33;40.23;;;30.47;;
84997;SDS011;75314;48.120;11.534;2024-03-07T05:46:58;40.53;;;28.63;;
84997;SDS011;75314;48.120;11.534;2024-03-07T05:49:23;42.13;;;30.33;;
84997;SDS011;75314;48.120;11.534;2024-03-07T05:51:49;38.87;;;27.70;;
84997;SDS011;75314;48.120;11.534;2024-03-07T05:54:14;44.10;;;29.67;;
84997;SDS011;75314;48.120;11.534;2024-03-07T05:56:39;45.60;;;30.73;;
84997;SDS011;75314;48.120;11.534;2024-03-07T05:59:05;41.03;;;29.37;;
84997;SDS011;75314;48.120;11.534;2024-03-07T06:01:31;38.93;;;29.50;;
84997;SDS011;75314;48.120;11.534;2024-03-07T06:03:56;39.17;;;29.40;;
84997;SDS011;75314;48.120;11.534;2024-03-07T06:06:21;41.10;;;29.70;;
84997;SDS011;75314;48.120;11.534;2024-03-07T06:08:46;40.97;;;30.73;;
84997;SDS011;75314;48.120;11.534;2024-03-07T06:11:12;43.87;;;31.47;;
84997;SDS011;75314;48.120;11.534;2024-03-07T06:13:37;40.17;;;29.90;;
84997;SDS011;75314;48.120;11.534;2024-03-07T06:16:02;45.33;;;32.77;;
84997;SDS011;75314;48.120;11.534;2024-03-07T06:18:27;41.27;;;29.70;;
84997;SDS011;75314;48.120;11.534;2024-03-07T06:20:53;44.90;;;32.83;;
84997;SDS011;75314;48.120;11.534;2024-03-07T06:23:18;46.40;;;33.30;;
84997;SDS011;75314;48.120;11.534;2024-03-07T06:25:43;43.70;;;31.50;;
84997;SDS011;75314;48.120;11.534;2024-03-07T06:28:08;44.60;;;30.63;;
84997;SDS011;75314;48.120;11.534;2024-03-07T06:30:34;44.23;;;30.87;;
84997;SDS011;75314;48.120;11.534;2024-03-07T06:33:03;43.03;;;30.30;;
84997;SDS011;75314;48.120;11.534;2024-03-07T06:35:29;45.93;;;30.97;;
84997;SDS011;75314;48.120;11.534;2024-03-07T06:37:54;44.97;;;31.93;;
84997;SDS011;75314;48.120;11.534;2024-03-07T06:40:19;45.67;;;31.93;;
84997;SDS011;75314;48.120;11.534;2024-03-07T06:42:44;45.30;;;31.67;;
84997;SDS011;75314;48.120;11.534;2024-03-07T06:45:09;42.70;;;31.03;;
84997;SDS011;75314;48.120;11.534;2024-03-07T06:47:35;44.53;;;31.87;;
84997;SDS011;75314;48.120;11.534;2024-03-07T06:50:00;46.10;;;32.70;;
84997;SDS011;75314;48.120;11.534;2024-03-07T06:52:25;47.93;;;34.10;;
84997;SDS011;75314;48.120;11.534;2024-03-07T06:54:50;59.40;;;40.43;;
84997;SDS011;75314;48.120;11.534;2024-03-07T06:57:17;48.23;;;35.33;;
84997;SDS011;75314;48.120;11.534;2024-03-07T06:59:42;45.13;;;30.93;;
84997;SDS011;75314;48.120;11.534;2024-03-07T07:02:07;45.57;;;31.23;;
84997;SDS011;75314;48.120;11.534;2024-03-07T07:04:32;45.23;;;32.23;;
84997;SDS011;75314;48.120;11.534;2024-03-07T07:06:57;48.50;;;31.40;;
84997;SDS011;75314;48.120;11.534;2024-03-07T07:09:23;43.27;;;30.67;;
84997;SDS011;75314;48.120;11.534;2024-03-07T07:11:48;46.20;;;32.07;;
84997;SDS011;75314;48.120;11.534;2024-03-07T07:14:13;48.33;;;32.80;;
84997;SDS011;75314;48.120;11.534;2024-03-07T07:16:38;41.73;;;31.20;;
84997;SDS011;75314;48.120;11.534;2024-03-07T07:19:03;43.40;;;30.43;;
84997;SDS011;75314;48.120;11.534;2024-03-07T07:21:28;41.63;;;30.07;;
84997;SDS011;75314;48.120;11.534;2024-03-07T07:23:54;44.93;;;30.80;;
84997;SDS011;75314;48.120;11.534;2024-03-07T07:26:19;43.13;;;30.20;;
84997;SDS011;75314;48.120;11.534;2024-03-07T07:28:44;39.27;;;29.83;;
84997;SDS011;75314;48.120;11.534;2024-03-07T07:31:09;43.67;;;30.97;;
84997;SDS011;75314;48.120;11.534;2024-03-07T07:33:34;45.07;;;32.10;;
84997;SDS011;75314;48.120;11.534;2024-03-07T07:36:00;42.43;;;30.03;;
84997;SDS011;75314;48.120;11.534;2024-03-07T07:38:25;43.17;;;31.83;;
84997;SDS011;75314;48.120;11.534;2024-03-07T07:40:50;43.20;;;30.57;;
84997;SDS011;75314;48.120;11.534;2024-03-07T07:43:16;45.80;;;30.87;;
84997;SDS011;75314;48.120;11.534;2024-03-07T07:45:42;45.50;;;31.87;;
84997;SDS011;75314;48.120;11.534;2024-03-07T07:48:07;44.47;;;32.10;;
84997;SDS011;75314;48.120;11.534;2024-03-07T07:50:32;43.30;;;30.53;;
84997;SDS011;75314;48.120;11.534;2024-03-07T07:52:58;43.37;;;30.80;;
84997;SDS011;75314;48.120;11.534;2024-03-07T07:57:58;44.70;;;30.93;;
84997;SDS011;75314;48.120;11.534;2024-03-07T08:00:25;42.57;;;29.63;;
84997;SDS011;75314;48.120;11.534;2024-03-07T08:02:59;46.20;;;33.07;;
84997;SDS011;75314;48.120;11.534;2024-03-07T08:05:26;47.87;;;33.57;;
84997;SDS011;75314;48.120;11.534;2024-03-07T08:07:55;48.97;;;32.97;;
84997;SDS011;75314;48.120;11.534;2024-03-07T08:10:22;43.20;;;31.20;;
84997;SDS011;75314;48.120;11.534;2024-03-07T08:12:52;48.53;;;33.10;;
84997;SDS011;75314;48.120;11.534;2024-03-07T08:15:17;45.63;;;33.27;;
84997;SDS011;75314;48.120;11.534;2024-03-07T08:17:43;47.73;;;32.33;;
84997;SDS011;75314;48.120;11.534;2024-03-07T08:20:16;47.30;;;33.03;;
84997;SDS011;75314;48.120;11.534;2024-03-07T08:22:42;46.23;;;31.80;;
84997;SDS011;75314;48.120;11.534;2024-03-07T08:25:11;43.97;;;31.67;;
84997;SDS011;75314;48.120;11.534;2024-03-07T08:27:37;43.93;;;32.23;;
84997;SDS011;75314;48.120;11.534;2024-03-07T08:30:12;47.53;;;32.50;;
84997;SDS011;75314;48.120;11.534;2024-03-07T08:32:37;44.80;;;32.50;;
84997;SDS011;75314;48.120;11.534;2024-03-07T08:35:15;48.17;;;33.30;;
84997;SDS011;75314;48.120;11.534;2024-03-07T08:37:42;44.80;;;30.83;;
84997;SDS011;75314;48.120;11.534;2024-03-07T08:40:08;45.50;;;31.53;;
84997;SDS011;75314;48.120;11.534;2024-03-07T08:42:34;42.03;;;30.07;;
84997;SDS011;75314;48.120;11.534;2024-03-07T08:45:03;39.17;;;29.80;;
84997;SDS011;75314;48.120;11.534;2024-03-07T08:47:28;44.43;;;30.80;;
84997;SDS011;75314;48.120;11.534;2024-03-07T08:49:54;42.43;;;30.73;;
84997;SDS011;75314;48.120;11.534;2024-03-07T08:52:19;43.23;;;31.23;;
84997;SDS011;75314;48.120;11.534;2024-03-07T08:54:44;48.97;;;33.77;;
84997;SDS011;75314;48.120;11.534;2024-03-07T08:57:09;46.63;;;32.87;;
84997;SDS011;75314;48.120;11.534;2024-03-07T08:59:35;47.47;;;33.27;;
84997;SDS011;75314;48.120;11.534;2024-03-07T09:02:00;51.40;;;33.27;;
84997;SDS011;75314;48.120;11.534;2024-03-07T09:04:25;49.53;;;34.77;;
84997;SDS011;75314;48.120;11.534;2024-03-07T09:06:50;45.43;;;32.03;;
84997;SDS011;75314;48.120;11.534;2024-03-07T09:09:15;44.53;;;32.47;;
84997;SDS011;75314;48.120;11.534;2024-03-07T09:11:41;42.27;;;30.93;;
84997;SDS011;75314;48.120;11.534;2024-03-07T09:14:06;47.37;;;34.80;;
84997;SDS011;75314;48.120;11.534;2024-03-07T09:16:31;47.90;;;31.20;;
84997;SDS011;75314;48.120;11.534;2024-03-07T09:18:56;49.30;;;35.63;;
84997;SDS011;75314;48.120;11.534;2024-03-07T09:21:21;46.83;;;32.63;;
84997;SDS011;75314;48.120;11.534;2024-03-07T09:23:46;45.97;;;32.17;;
84997;SDS011;75314;48.120;11.534;2024-03-07T09:26:12;50.00;;;34.13;;
84997;SDS011;75314;48.120;11.534;2024-03-07T09:28:37;45.13;;;31.87;;
84997;SDS011;75314;48.120;11.534;2024-03-07T09:31:02;46.90;;;32.97;;
84997;SDS011;75314;48.120;11.534;2024-03-07T09:33:27;46.83;;;33.10;;
84997;SDS011;75314;48.120;11.534;2024-03-07T09:35:53;43.83;;;30.43;;
84997;SDS011;75314;48.120;11.534;2024-03-07T09:38:18;42.00;;;30.20;;
84997;SDS011;75314;48.120;11.534;2024-03-07T09:40:43;43.90;;;31.13;;
84997;SDS011;75314;48.120;11.534;2024-03-07T09:43:08;43.30;;;29.87;;
84997;SDS011;75314;48.120;11.534;2024-03-07T09:45:37;39.63;;;29.70;;
84997;SDS011;75314;48.120;11.534;2024-03-07T09:48:03;43.23;;;30.93;;
84997;SDS011;75314;48.120;11.534;2024-03-07T09:50:29;42.13;;;28.47;;
84997;SDS011;75314;48.120;11.534;2024-03-07T09:52:55;40.53;;;29.67;;
84997;SDS011;75314;48.120;11.534;2024-03-07T09:55:20;38.97;;;27.70;;
84997;SDS011;75314;48.120;11.534;2024-03-07T09:57:48;38.33;;;28.20;;
84997;SDS011;75314;48.120;11.534;2024-03-07T10:00:16;40.23;;;29.10;;
84997;SDS011;75314;48.120;11.534;2024-03-07T10:02:41;40.43;;;28.33;;
84997;SDS011;75314;48.120;11.534;2024-03-07T10:05:07;39.33;;;28.53;;
84997;SDS011;75314;48.120;11.534;2024-03-07T10:07:35;37.50;;;27.50;;
84997;SDS011;75314;48.120;11.534;2024-03-07T10:10:00;37.73;;;26.13;;
84997;SDS011;75314;48.120;11.534;2024-03-07T10:12:25;34.57;;;25.40;;
84997;SDS011;75314;48.120;11.534;2024-03-07T10:14:53;39.13;;;26.63;;
84997;SDS011;75314;48.120;11.534;2024-03-07T10:17:23;35.67;;;26.30;;
84997;SDS011;75314;48.120;11.534;2024-03-07T10:19:48;37.97;;;26.50;;
84997;SDS011;75314;48.120;11.534;2024-03-07T10:22:14;41.03;;;29.00;;
84997;SDS011;75314;48.120;11.534;2024-03-07T10:24:39;38.90;;;28.40;;
84997;SDS011;75314;48.120;11.534;2024-03-07T10:27:05;38.97;;;28.13;;
84997;SDS011;75314;48.120;11.534;2024-03-07T10:29:30;39.90;;;28.93;;
84997;SDS011;75314;48.120;11.534;2024-03-07T10:31:55;38.27;;;27.40;;
84997;SDS011;75314;48.120;11.534;2024-03-07T10:34:20;37.73;;;27.30;;
84997;SDS011;75314;48.120;11.534;2024-03-07T10:36:46;32.87;;;25.43;;
84997;SDS011;75314;48.120;11.534;2024-03-07T10:39:11;35.97;;;27.37;;
84997;SDS011;75314;48.120;11.534;2024-03-07T10:41:36;36.57;;;27.60;;
84997;SDS011;75314;48.120;11.534;2024-03-07T10:44:02;36.10;;;26.63;;
84997;SDS011;75314;48.120;11.534;2024-03-07T10:46:29;39.50;;;27.53;;
84997;SDS011;75314;48.120;11.534;2024-03-07T10:48:54;36.13;;;26.57;;
84997;SDS011;75314;48.120;11.534;2024-03-07T10:51:29;35.90;;;26.53;;
84997;SDS011;75314;48.120;11.534;2024-03-07T10:56:47;40.37;;;26.83;;
84997;SDS011;75314;48.120;11.534;2024-03-07T10:59:17;35.30;;;26.87;;
84997;SDS011;75314;48.120;11.534;2024-03-07T11:02:04;33.80;;;25.00;;
84997;SDS011;75314;48.120;11.534;2024-03-07T11:04:39;31.67;;;23.40;;
84997;SDS011;75314;48.120;11.534;2024-03-07T11:07:04;34.70;;;25.40;;
84997;SDS011;75314;48.120;11.534;2024-03-07T11:09:30;34.20;;;25.43;;
84997;SDS011;75314;48.120;11.534;2024-03-07T11:11:56;36.47;;;26.33;;
84997;SDS011;75314;48.120;11.534;2024-03-07T11:14:22;36.73;;;26.10;;
84997;SDS011;75314;48.120;11.534;2024-03-07T11:16:48;34.33;;;24.60;;
84997;SDS011;75314;48.120;11.534;2024-03-07T11:19:18;33.43;;;24.77;;
84997;SDS011;75314;48.120;11.534;2024-03-07T11:21:49;34.13;;;24.77;;
84997;SDS011;75314;48.120;11.534;2024-03-07T11:24:27;34.60;;;25.50;;
84997;SDS011;75314;48.120;11.534;2024-03-07T11:26:56;38.23;;;27.43;;
84997;SDS011;75314;48.120;11.534;2024-03-07T11:32:14;35.00;;;25.27;;
84997;SDS011;75314;48.120;11.534;2024-03-07T11:34:43;35.27;;;25.13;;
84997;SDS011;75314;48.120;11.534;2024-03-07T11:37:09;33.03;;;22.97;;
84997;SDS011;75314;48.120;11.534;2024-03-07T11:39:40;34.60;;;23.77;;
84997;SDS011;75314;48.120;11.534;2024-03-07T11:42:18;32.13;;;22.43;;
84997;SDS011;75314;48.120;11.534;2024-03-07T11:44:45;30.50;;;22.43;;
84997;SDS011;75314;48.120;11.534;2024-03-07T11:47:10;29.63;;;22.00;;
84997;SDS011;75314;48.120;11.534;2024-03-07T11:49:37;30.40;;;22.13;;
84997;SDS011;75314;48.120;11.534;2024-03-07T11:52:03;32.77;;;24.37;;
84997;SDS011;75314;48.120;11.534;2024-03-07T11:54:28;31.33;;;22.63;;
84997;SDS011;75314;48.120;11.534;2024-03-07T11:56:54;33.73;;;24.57;;
84997;SDS011;75314;48.120;11.534;2024-03-07T11:59:19;32.60;;;23.70;;
84997;SDS011;75314;48.120;11.534;2024-03-07T12:01:44;30.33;;;22.37;;
84997;SDS011;75314;48.120;11.534;2024-03-07T12:04:09;33.20;;;24.73;;
84997;SDS011;75314;48.120;11.534;2024-03-07T12:06:34;33.97;;;24.27;;
84997;SDS011;75314;48.120;11.534;2024-03-07T12:09:00;29.67;;;23.13;;
84997;SDS011;75314;48.120;11.534;2024-03-07T12:11:25;31.77;;;22.37;;
84997;SDS011;75314;48.120;11.534;2024-03-07T12:13:50;30.63;;;22.27;;
84997;SDS011;75314;48.120;11.534;2024-03-07T12:16:16;29.67;;;22.00;;
84997;SDS011;75314;48.120;11.534;2024-03-07T12:18:41;28.20;;;20.87;;
84997;SDS011;75314;48.120;11.534;2024-03-07T12:21:06;30.00;;;22.57;;
84997;SDS011;75314;48.120;11.534;2024-03-07T12:23:32;34.20;;;23.80;;
84997;SDS011;75314;48.120;11.534;2024-03-07T12:26:01;31.13;;;22.00;;
84997;SDS011;75314;48.120;11.534;2024-03-07T12:28:26;30.83;;;22.53;;
84997;SDS011;75314;48.120;11.534;2024-03-07T12:30:53;31.07;;;21.97;;
84997;SDS011;75314;48.120;11.534;2024-03-07T12:33:19;30.30;;;21.27;;
84997;SDS011;75314;48.120;11.534;2024-03-07T12:35:48;33.17;;;23.53;;
84997;SDS011;75314;48.120;11.534;2024-03-07T12:38:14;32.87;;;23.97;;
84997;SDS011;75314;48.120;11.534;2024-03-07T12:40:40;31.07;;;22.37;;
84997;SDS011;75314;48.120;11.534;2024-03-07T12:45:50;34.77;;;23.87;;
84997;SDS011;75314;48.120;11.534;2024-03-07T12:48:16;34.97;;;24.57;;
84997;SDS011;75314;48.120;11.534;2024-03-07T12:50:44;35.40;;;24.33;;
84997;SDS011;75314;48.120;11.534;2024-03-07T12:53:10;32.47;;;23.33;;
84997;SDS011;75314;48.120;11.534;2024-03-07T12:55:35;35.73;;;24.37;;
84997;SDS011;75314;48.120;11.534;2024-03-07T12:58:00;35.80;;;23.73;;
84997;SDS011;75314;48.120;11.534;2024-03-07T13:00:26;36.77;;;25.57;;
84997;SDS011;75314;48.120;11.534;2024-03-07T13:02:51;32.63;;;23.43;;
84997;SDS011;75314;48.120;11.534;2024-03-07T13:05:16;31.50;;;23.53;;
84997;SDS011;75314;48.120;11.534;2024-03-07T13:07:41;30.93;;;23.43;;
84997;SDS011;75314;48.120;11.534;2024-03-07T13:10:06;30.60;;;22.77;;
84997;SDS011;75314;48.120;11.534;2024-03-07T13:12:32;32.57;;;23.33;;
84997;SDS011;75314;48.120;11.534;2024-03-07T13:14:57;28.43;;;21.30;;
84997;SDS011;75314;48.120;11.534;2024-03-07T13:17:22;31.87;;;22.37;;
84997;SDS011;75314;48.120;11.534;2024-03-07T13:19:47;32.23;;;22.13;;
84997;SDS011;75314;48.120;11.534;2024-03-07T13:22:13;31.90;;;22.83;;
84997;SDS011;75314;48.120;11.534;2024-03-07T13:24:38;29.50;;;21.20;;
84997;SDS011;75314;48.120;11.534;2024-03-07T13:27:03;32.50;;;23.03;;
84997;SDS011;75314;48.120;11.534;2024-03-07T13:29:28;29.83;;;22.33;;
84997;SDS011;75314;48.120;11.534;2024-03-07T13:31:54;31.03;;;22.47;;
84997;SDS011;75314;48.120;11.534;2024-03-07T13:34:19;31.47;;;22.70;;
84997;SDS011;75314;48.120;11.534;2024-03-07T13:36:44;30.03;;;21.73;;
84997;SDS011;75314;48.120;11.534;2024-03-07T13:39:10;30.77;;;21.53;;
84997;SDS011;75314;48.120;11.534;2024-03-07T13:41:36;32.40;;;22.63;;
84997;SDS011;75314;48.120;11.534;2024-03-07T13:44:01;33.10;;;23.00;;
84997;SDS011;75314;48.120;11.534;2024-03-07T13:46:26;31.10;;;21.83;;
84997;SDS011;75314;48.120;11.534;2024-03-07T13:48:51;35.67;;;23.03;;
84997;SDS011;75314;48.120;11.534;2024-03-07T13:51:17;29.83;;;21.23;;
84997;SDS011;75314;48.120;11.534;2024-03-07T13:53:42;31.50;;;22.43;;
84997;SDS011;75314;48.120;11.534;2024-03-07T14:12:11;27.07;;;18.83;;
84997;SDS011;75314;48.120;11.534;2024-03-07T14:21:04;32.07;;;21.23;;
84997;SDS011;75314;48.120;11.534;2024-03-07T14:29:27;25.70;;;19.00;;
84997;SDS011;75314;48.120;11.534;2024-03-07T14:32:01;27.60;;;19.87;;
84997;SDS011;75314;48.120;11.534;2024-03-07T14:36:53;30.52;;;22.08;;
84997;SDS011;75314;48.120;11.534;2024-03-07T14:39:21;34.20;;;24.50;;
84997;SDS011;75314;48.120;11.534;2024-03-07T14:44:16;31.57;;;21.70;;